sensor_id;sensor_type;location;lat;lon;timestamp;P1;durP1;ratioP1;P2;durP2;ratioP2
56893;SDS011;43392;50.078;13.704;2024-03-23T00:55:59;23.90;;;14.65;;
56893;SDS011;43392;50.078;13.704;2024-03-23T00:58:25;20.27;;;12.93;;
56893;SDS011;43392;50.078;13.704;2024-03-23T01:00:51;22.17;;;13.15;;
56893;SDS011;43392;50.078;13.704;2024-03-23T01:03:17;17.98;;;11.13;;
56893;SDS011;43392;50.078;13.704;2024-03-23T01:05:43;19.25;;;11.57;;
56893;SDS011;43392;50.078;13.704;2024-03-23T01:08:09;22.10;;;13.10;;
56893;SDS011;43392;50.078;13.704;2024-03-23T01:10:35;23.50;;;14.35;;
56893;SDS011;43392;50.078;13.704;2024-03-23T01:13:01;19.77;;;12.57;;
56893;SDS011;43392;50.078;13.704;2024-03-23T01:15:27;18.10;;;12.40;;
56893;SDS011;43392;50.078;13.704;2024-03-23T01:17:53;19.58;;;12.30;;
56893;SDS011;43392;50.078;13.704;2024-03-23T01:20:19;23.98;;;12.43;;
56893;SDS011;43392;50.078;13.704;2024-03-23T01:22:45;17.90;;;12.05;;
56893;SDS011;43392;50.078;13.704;2024-03-23T01:25:11;18.75;;;12.90;;
56893;SDS011;43392;50.078;13.704;2024-03-23T01:27:37;17.30;;;11.70;;
56893;SDS011;43392;50.078;13.704;2024-03-23T01:30:03;18.92;;;12.18;;
56893;SDS011;43392;50.078;13.704;2024-03-23T01:32:30;20.02;;;11.70;;
56893;SDS011;43392;50.078;13.704;2024-03-23T01:34:55;19.02;;;11.52;;
56893;SDS011;43392;50.078;13.704;2024-03-23T01:37:21;22.95;;;12.15;;
56893;SDS011;43392;50.078;13.704;2024-03-23T01:39:47;22.73;;;12.57;;
56893;SDS011;43392;50.078;13.704;2024-03-23T01:42:13;19.33;;;12.02;;
56893;SDS011;43392;50.078;13.704;2024-03-23T01:44:39;19.55;;;11.75;;
56893;SDS011;43392;50.078;13.704;2024-03-23T01:47:06;21.88;;;13.05;;
56893;SDS011;43392;50.078;13.704;2024-03-23T01:49:32;20.05;;;13.10;;
56893;SDS011;43392;50.078;13.704;2024-03-23T01:51:59;22.70;;;12.98;;
56893;SDS011;43392;50.078;13.704;2024-03-23T01:54:25;19.58;;;12.25;;
56893;SDS011;43392;50.078;13.704;2024-03-23T01:56:51;20.52;;;11.75;;
56893;SDS011;43392;50.078;13.704;2024-03-23T01:59:17;19.63;;;12.48;;
56893;SDS011;43392;50.078;13.704;2024-03-23T02:01:44;19.75;;;12.27;;
56893;SDS011;43392;50.078;13.704;2024-03-23T02:04:09;18.33;;;11.93;;
56893;SDS011;43392;50.078;13.704;2024-03-23T02:06:36;18.30;;;12.05;;
56893;SDS011;43392;50.078;13.704;2024-03-23T02:09:01;19.80;;;11.30;;
56893;SDS011;43392;50.078;13.704;2024-03-23T02:11:30;19.75;;;11.77;;
56893;SDS011;43392;50.078;13.704;2024-03-23T02:13:56;18.38;;;12.05;;
56893;SDS011;43392;50.078;13.704;2024-03-23T02:16:23;18.90;;;12.48;;
56893;SDS011;43392;50.078;13.704;2024-03-23T02:18:48;19.02;;;12.48;;
56893;SDS011;43392;50.078;13.704;2024-03-23T02:21:15;20.15;;;12.50;;
56893;SDS011;43392;50.078;13.704;2024-03-23T02:23:40;19.75;;;11.73;;
56893;SDS011;43392;50.078;13.704;2024-03-23T02:26:07;20.00;;;12.57;;
56893;SDS011;43392;50.078;13.704;2024-03-23T02:28:32;17.90;;;11.70;;
56893;SDS011;43392;50.078;13.704;2024-03-23T02:30:59;19.17;;;12.05;;
56893;SDS011;43392;50.078;13.704;2024-03-23T02:33:26;18.58;;;12.18;;
56893;SDS011;43392;50.078;13.704;2024-03-23T02:35:55;18.85;;;12.75;;
56893;SDS011;43392;50.078;13.704;2024-03-23T02:38:21;21.33;;;11.80;;
56893;SDS011;43392;50.078;13.704;2024-03-23T02:40:48;18.98;;;12.50;;
56893;SDS011;43392;50.078;13.704;2024-03-23T02:43:13;20.23;;;12.68;;
56893;SDS011;43392;50.078;13.704;2024-03-23T02:45:39;22.20;;;13.10;;
56893;SDS011;43392;50.078;13.704;2024-03-23T02:48:05;20.45;;;13.30;;
56893;SDS011;43392;50.078;13.704;2024-03-23T02:50:32;20.60;;;12.70;;
56893;SDS011;43392;50.078;13.704;2024-03-23T02:52:57;18.67;;;13.15;;
56893;SDS011;43392;50.078;13.704;2024-03-23T02:55:24;20.80;;;12.25;;
56893;SDS011;43392;50.078;13.704;2024-03-23T02:57:49;20.15;;;12.20;;
56893;SDS011;43392;50.078;13.704;2024-03-23T03:00:16;19.40;;;13.05;;
56893;SDS011;43392;50.078;13.704;2024-03-23T03:02:41;19.45;;;12.25;;
56893;SDS011;43392;50.078;13.704;2024-03-23T03:05:08;21.30;;;12.80;;
56893;SDS011;43392;50.078;13.704;2024-03-23T03:07:34;19.40;;;12.70;;
56893;SDS011;43392;50.078;13.704;2024-03-23T03:10:00;21.50;;;13.52;;
56893;SDS011;43392;50.078;13.704;2024-03-23T03:12:26;22.17;;;12.48;;
56893;SDS011;43392;50.078;13.704;2024-03-23T03:14:52;21.50;;;13.73;;
56893;SDS011;43392;50.078;13.704;2024-03-23T03:17:17;18.73;;;12.23;;
56893;SDS011;43392;50.078;13.704;2024-03-23T03:19:44;20.75;;;13.40;;
56893;SDS011;43392;50.078;13.704;2024-03-23T03:22:10;23.45;;;14.40;;
56893;SDS011;43392;50.078;13.704;2024-03-23T03:24:37;20.13;;;12.55;;
56893;SDS011;43392;50.078;13.704;2024-03-23T03:27:02;23.77;;;13.77;;
56893;SDS011;43392;50.078;13.704;2024-03-23T03:29:29;20.88;;;13.63;;
56893;SDS011;43392;50.078;13.704;2024-03-23T03:32:00;20.75;;;13.80;;
56893;SDS011;43392;50.078;13.704;2024-03-23T03:34:27;21.42;;;13.95;;
56893;SDS011;43392;50.078;13.704;2024-03-23T03:36:52;20.50;;;13.32;;
56893;SDS011;43392;50.078;13.704;2024-03-23T03:39:19;20.20;;;12.90;;
56893;SDS011;43392;50.078;13.704;2024-03-23T03:41:44;22.05;;;14.20;;
56893;SDS011;43392;50.078;13.704;2024-03-23T03:44:11;21.55;;;12.52;;
56893;SDS011;43392;50.078;13.704;2024-03-23T03:46:36;20.50;;;13.10;;
56893;SDS011;43392;50.078;13.704;2024-03-23T03:49:03;19.55;;;12.70;;
56893;SDS011;43392;50.078;13.704;2024-03-23T03:51:28;20.17;;;12.88;;
56893;SDS011;43392;50.078;13.704;2024-03-23T03:53:54;19.10;;;13.07;;
56893;SDS011;43392;50.078;13.704;2024-03-23T03:56:20;20.77;;;12.80;;
56893;SDS011;43392;50.078;13.704;2024-03-23T03:58:47;21.20;;;13.20;;
56893;SDS011;43392;50.078;13.704;2024-03-23T04:01:13;21.35;;;13.13;;
56893;SDS011;43392;50.078;13.704;2024-03-23T04:03:40;19.90;;;13.35;;
56893;SDS011;43392;50.078;13.704;2024-03-23T04:06:08;20.58;;;12.65;;
56893;SDS011;43392;50.078;13.704;2024-03-23T04:08:38;21.60;;;13.65;;
56893;SDS011;43392;50.078;13.704;2024-03-23T04:11:03;20.65;;;13.13;;
56893;SDS011;43392;50.078;13.704;2024-03-23T04:13:30;19.60;;;12.93;;
56893;SDS011;43392;50.078;13.704;2024-03-23T04:15:56;21.88;;;13.20;;
56893;SDS011;43392;50.078;13.704;2024-03-23T04:18:22;20.83;;;13.90;;
56893;SDS011;43392;50.078;13.704;2024-03-23T04:20:49;19.70;;;13.35;;
56893;SDS011;43392;50.078;13.704;2024-03-23T04:23:15;17.38;;;11.95;;
56893;SDS011;43392;50.078;13.704;2024-03-23T04:25:40;19.23;;;12.20;;
56893;SDS011;43392;50.078;13.704;2024-03-23T04:28:07;20.45;;;12.68;;
56893;SDS011;43392;50.078;13.704;2024-03-23T04:30:32;19.50;;;13.07;;
56893;SDS011;43392;50.078;13.704;2024-03-23T04:32:59;20.00;;;12.90;;
56893;SDS011;43392;50.078;13.704;2024-03-23T04:35:25;19.70;;;12.20;;
56893;SDS011;43392;50.078;13.704;2024-03-23T04:37:53;19.00;;;12.70;;
56893;SDS011;43392;50.078;13.704;2024-03-23T04:40:20;20.17;;;12.75;;
56893;SDS011;43392;50.078;13.704;2024-03-23T04:42:47;20.95;;;13.02;;
56893;SDS011;43392;50.078;13.704;2024-03-23T04:45:14;18.73;;;12.15;;
56893;SDS011;43392;50.078;13.704;2024-03-23T04:47:40;19.05;;;12.38;;
56893;SDS011;43392;50.078;13.704;2024-03-23T04:50:07;19.60;;;12.07;;
56893;SDS011;43392;50.078;13.704;2024-03-23T04:52:35;16.90;;;12.40;;
56893;SDS011;43392;50.078;13.704;2024-03-23T04:55:02;19.17;;;12.50;;
56893;SDS011;43392;50.078;13.704;2024-03-23T04:57:28;17.70;;;12.10;;
56893;SDS011;43392;50.078;13.704;2024-03-23T04:59:54;20.38;;;11.77;;
56893;SDS011;43392;50.078;13.704;2024-03-23T05:02:19;20.38;;;11.70;;
56893;SDS011;43392;50.078;13.704;2024-03-23T05:04:46;18.10;;;10.80;;
56893;SDS011;43392;50.078;13.704;2024-03-23T05:07:12;21.10;;;12.13;;
56893;SDS011;43392;50.078;13.704;2024-03-23T05:09:38;16.52;;;10.95;;
56893;SDS011;43392;50.078;13.704;2024-03-23T05:12:04;16.88;;;11.15;;
56893;SDS011;43392;50.078;13.704;2024-03-23T05:14:31;19.08;;;10.73;;
56893;SDS011;43392;50.078;13.704;2024-03-23T05:16:56;19.63;;;12.00;;
56893;SDS011;43392;50.078;13.704;2024-03-23T05:19:22;19.25;;;11.70;;
56893;SDS011;43392;50.078;13.704;2024-03-23T05:21:48;20.10;;;11.60;;
56893;SDS011;43392;50.078;13.704;2024-03-23T05:24:14;19.13;;;11.40;;
56893;SDS011;43392;50.078;13.704;2024-03-23T05:26:40;22.20;;;11.73;;
56893;SDS011;43392;50.078;13.704;2024-03-23T05:29:06;19.15;;;11.40;;
56893;SDS011;43392;50.078;13.704;2024-03-23T05:31:35;22.35;;;11.48;;
56893;SDS011;43392;50.078;13.704;2024-03-23T05:34:02;18.60;;;11.15;;
56893;SDS011;43392;50.078;13.704;2024-03-23T05:36:28;18.15;;;11.18;;
56893;SDS011;43392;50.078;13.704;2024-03-23T05:38:55;21.23;;;11.75;;
56893;SDS011;43392;50.078;13.704;2024-03-23T05:41:20;18.98;;;11.48;;
56893;SDS011;43392;50.078;13.704;2024-03-23T05:43:49;17.38;;;11.30;;
56893;SDS011;43392;50.078;13.704;2024-03-23T05:46:14;20.35;;;13.25;;
56893;SDS011;43392;50.078;13.704;2024-03-23T05:48:41;20.65;;;13.70;;
56893;SDS011;43392;50.078;13.704;2024-03-23T05:51:06;18.35;;;12.15;;
56893;SDS011;43392;50.078;13.704;2024-03-23T05:53:33;19.02;;;12.25;;
56893;SDS011;43392;50.078;13.704;2024-03-23T05:56:02;18.50;;;12.70;;
56893;SDS011;43392;50.078;13.704;2024-03-23T05:58:30;26.90;;;13.13;;
56893;SDS011;43392;50.078;13.704;2024-03-23T06:00:59;19.23;;;11.90;;
56893;SDS011;43392;50.078;13.704;2024-03-23T06:03:28;17.00;;;11.75;;
56893;SDS011;43392;50.078;13.704;2024-03-23T06:05:54;18.77;;;12.55;;
56893;SDS011;43392;50.078;13.704;2024-03-23T06:08:21;21.92;;;12.70;;
56893;SDS011;43392;50.078;13.704;2024-03-23T06:10:47;18.02;;;12.68;;
56893;SDS011;43392;50.078;13.704;2024-03-23T06:13:15;18.75;;;12.57;;
56893;SDS011;43392;50.078;13.704;2024-03-23T06:15:40;19.90;;;12.68;;
56893;SDS011;43392;50.078;13.704;2024-03-23T06:18:07;20.70;;;13.05;;
56893;SDS011;43392;50.078;13.704;2024-03-23T06:20:33;18.98;;;12.00;;
56893;SDS011;43392;50.078;13.704;2024-03-23T06:23:02;19.95;;;11.15;;
56893;SDS011;43392;50.078;13.704;2024-03-23T06:25:28;18.95;;;11.77;;
56893;SDS011;43392;50.078;13.704;2024-03-23T06:27:55;21.77;;;12.90;;
56893;SDS011;43392;50.078;13.704;2024-03-23T06:30:20;19.83;;;11.73;;
56893;SDS011;43392;50.078;13.704;2024-03-23T06:32:47;17.85;;;11.43;;
56893;SDS011;43392;50.078;13.704;2024-03-23T06:35:12;18.27;;;11.05;;
56893;SDS011;43392;50.078;13.704;2024-03-23T06:37:39;19.48;;;11.52;;
56893;SDS011;43392;50.078;13.704;2024-03-23T06:40:06;18.48;;;11.50;;
56893;SDS011;43392;50.078;13.704;2024-03-23T06:42:35;17.33;;;10.95;;
56893;SDS011;43392;50.078;13.704;2024-03-23T06:45:01;18.73;;;11.80;;
56893;SDS011;43392;50.078;13.704;2024-03-23T06:47:28;15.63;;;10.27;;
56893;SDS011;43392;50.078;13.704;2024-03-23T06:49:54;18.35;;;10.75;;
56893;SDS011;43392;50.078;13.704;2024-03-23T06:52:20;17.10;;;10.90;;
56893;SDS011;43392;50.078;13.704;2024-03-23T06:54:46;16.90;;;11.00;;
56893;SDS011;43392;50.078;13.704;2024-03-23T06:57:12;15.48;;;9.77;;
56893;SDS011;43392;50.078;13.704;2024-03-23T06:59:38;16.02;;;10.50;;
56893;SDS011;43392;50.078;13.704;2024-03-23T07:02:05;18.38;;;9.57;;
56893;SDS011;43392;50.078;13.704;2024-03-23T07:04:31;15.15;;;9.27;;
56893;SDS011;43392;50.078;13.704;2024-03-23T07:06:57;16.60;;;9.88;;
56893;SDS011;43392;50.078;13.704;2024-03-23T07:09:22;19.63;;;9.98;;
56893;SDS011;43392;50.078;13.704;2024-03-23T07:11:51;16.15;;;9.75;;
56893;SDS011;43392;50.078;13.704;2024-03-23T07:14:18;17.23;;;9.50;;
56893;SDS011;43392;50.078;13.704;2024-03-23T07:16:45;17.70;;;10.68;;
56893;SDS011;43392;50.078;13.704;2024-03-23T07:19:10;17.58;;;10.77;;
56893;SDS011;43392;50.078;13.704;2024-03-23T07:21:37;14.77;;;8.77;;
56893;SDS011;43392;50.078;13.704;2024-03-23T07:24:03;15.43;;;9.52;;
56893;SDS011;43392;50.078;13.704;2024-03-23T07:26:29;12.75;;;8.85;;
56893;SDS011;43392;50.078;13.704;2024-03-23T07:28:55;14.40;;;9.10;;
56893;SDS011;43392;50.078;13.704;2024-03-23T07:31:21;15.35;;;8.75;;
56893;SDS011;43392;50.078;13.704;2024-03-23T07:33:48;14.48;;;9.10;;
56893;SDS011;43392;50.078;13.704;2024-03-23T07:36:15;13.05;;;8.30;;
56893;SDS011;43392;50.078;13.704;2024-03-23T07:38:43;19.42;;;8.70;;
56893;SDS011;43392;50.078;13.704;2024-03-23T07:41:11;16.27;;;10.07;;
56893;SDS011;43392;50.078;13.704;2024-03-23T07:43:40;16.75;;;9.32;;
56893;SDS011;43392;50.078;13.704;2024-03-23T07:46:06;15.05;;;9.30;;
56893;SDS011;43392;50.078;13.704;2024-03-23T07:48:32;13.13;;;8.85;;
56893;SDS011;43392;50.078;13.704;2024-03-23T07:50:59;17.83;;;10.35;;
56893;SDS011;43392;50.078;13.704;2024-03-23T07:53:25;15.05;;;8.98;;
56893;SDS011;43392;50.078;13.704;2024-03-23T07:55:55;13.32;;;8.38;;
56893;SDS011;43392;50.078;13.704;2024-03-23T07:58:21;14.63;;;8.68;;
56893;SDS011;43392;50.078;13.704;2024-03-23T08:00:47;15.15;;;8.50;;
56893;SDS011;43392;50.078;13.704;2024-03-23T08:03:13;16.00;;;8.93;;
56893;SDS011;43392;50.078;13.704;2024-03-23T08:05:39;13.30;;;7.85;;
56893;SDS011;43392;50.078;13.704;2024-03-23T08:08:05;16.42;;;9.50;;
56893;SDS011;43392;50.078;13.704;2024-03-23T08:10:32;13.15;;;7.80;;
56893;SDS011;43392;50.078;13.704;2024-03-23T08:12:57;16.92;;;8.50;;
56893;SDS011;43392;50.078;13.704;2024-03-23T08:15:24;13.48;;;7.97;;
56893;SDS011;43392;50.078;13.704;2024-03-23T08:17:49;11.38;;;6.95;;
56893;SDS011;43392;50.078;13.704;2024-03-23T08:20:16;14.15;;;7.85;;
56893;SDS011;43392;50.078;13.704;2024-03-23T08:22:42;17.52;;;10.23;;
56893;SDS011;43392;50.078;13.704;2024-03-23T08:25:08;19.40;;;10.85;;
56893;SDS011;43392;50.078;13.704;2024-03-23T08:27:33;34.10;;;13.82;;
56893;SDS011;43392;50.078;13.704;2024-03-23T08:30:00;15.45;;;8.38;;
56893;SDS011;43392;50.078;13.704;2024-03-23T08:32:25;12.05;;;7.47;;
56893;SDS011;43392;50.078;13.704;2024-03-23T08:34:52;13.32;;;7.40;;
56893;SDS011;43392;50.078;13.704;2024-03-23T08:37:17;16.00;;;9.15;;
56893;SDS011;43392;50.078;13.704;2024-03-23T08:39:44;11.40;;;6.90;;
56893;SDS011;43392;50.078;13.704;2024-03-23T08:42:09;11.75;;;7.13;;
56893;SDS011;43392;50.078;13.704;2024-03-23T08:44:36;12.63;;;6.30;;
56893;SDS011;43392;50.078;13.704;2024-03-23T08:47:01;12.07;;;6.25;;
56893;SDS011;43392;50.078;13.704;2024-03-23T08:49:28;10.45;;;5.93;;
56893;SDS011;43392;50.078;13.704;2024-03-23T08:51:53;12.75;;;6.43;;
56893;SDS011;43392;50.078;13.704;2024-03-23T08:54:20;14.25;;;8.73;;
56893;SDS011;43392;50.078;13.704;2024-03-23T08:56:47;10.63;;;6.45;;
56893;SDS011;43392;50.078;13.704;2024-03-23T08:59:13;14.52;;;8.52;;
56893;SDS011;43392;50.078;13.704;2024-03-23T09:01:39;14.02;;;7.80;;
56893;SDS011;43392;50.078;13.704;2024-03-23T09:04:05;12.88;;;6.05;;
56893;SDS011;43392;50.078;13.704;2024-03-23T09:06:31;14.07;;;7.75;;
56893;SDS011;43392;50.078;13.704;2024-03-23T09:08:57;16.95;;;8.80;;
56893;SDS011;43392;50.078;13.704;2024-03-23T09:11:23;16.35;;;8.45;;
56893;SDS011;43392;50.078;13.704;2024-03-23T09:13:49;10.27;;;5.90;;
56893;SDS011;43392;50.078;13.704;2024-03-23T09:16:15;12.88;;;7.13;;
56893;SDS011;43392;50.078;13.704;2024-03-23T09:18:41;10.63;;;6.45;;
56893;SDS011;43392;50.078;13.704;2024-03-23T09:21:12;18.13;;;7.72;;
56893;SDS011;43392;50.078;13.704;2024-03-23T09:23:40;14.85;;;8.60;;
56893;SDS011;43392;50.078;13.704;2024-03-23T09:26:08;29.92;;;15.82;;
56893;SDS011;43392;50.078;13.704;2024-03-23T09:28:34;28.52;;;16.00;;
56893;SDS011;43392;50.078;13.704;2024-03-23T09:31:03;25.30;;;16.20;;
56893;SDS011;43392;50.078;13.704;2024-03-23T09:33:34;20.10;;;11.85;;
56893;SDS011;43392;50.078;13.704;2024-03-23T09:36:06;12.57;;;7.90;;
56893;SDS011;43392;50.078;13.704;2024-03-23T09:38:33;15.10;;;9.00;;
56893;SDS011;43392;50.078;13.704;2024-03-23T09:40:59;26.65;;;16.65;;
56893;SDS011;43392;50.078;13.704;2024-03-23T09:43:25;61.08;;;29.70;;
56893;SDS011;43392;50.078;13.704;2024-03-23T09:45:51;50.08;;;26.10;;
56893;SDS011;43392;50.078;13.704;2024-03-23T09:48:18;33.92;;;18.48;;
56893;SDS011;43392;50.078;13.704;2024-03-23T09:50:44;44.50;;;26.17;;
56893;SDS011;43392;50.078;13.704;2024-03-23T09:53:14;15.45;;;9.02;;
56893;SDS011;43392;50.078;13.704;2024-03-23T09:55:41;10.95;;;7.78;;
56893;SDS011;43392;50.078;13.704;2024-03-23T09:58:11;11.20;;;5.78;;
56893;SDS011;43392;50.078;13.704;2024-03-23T10:00:38;10.60;;;5.35;;
56893;SDS011;43392;50.078;13.704;2024-03-23T10:03:04;8.65;;;4.78;;
56893;SDS011;43392;50.078;13.704;2024-03-23T10:05:31;10.18;;;5.22;;
56893;SDS011;43392;50.078;13.704;2024-03-23T10:07:59;10.18;;;5.35;;
56893;SDS011;43392;50.078;13.704;2024-03-23T10:10:25;11.43;;;5.35;;
56893;SDS011;43392;50.078;13.704;2024-03-23T10:12:52;10.77;;;5.13;;
56893;SDS011;43392;50.078;13.704;2024-03-23T10:15:18;9.15;;;4.75;;
56893;SDS011;43392;50.078;13.704;2024-03-23T10:17:46;8.77;;;4.70;;
56893;SDS011;43392;50.078;13.704;2024-03-23T10:20:19;8.47;;;4.60;;
56893;SDS011;43392;50.078;13.704;2024-03-23T10:22:47;10.52;;;5.18;;
56893;SDS011;43392;50.078;13.704;2024-03-23T10:25:14;8.40;;;5.05;;
56893;SDS011;43392;50.078;13.704;2024-03-23T10:27:41;7.15;;;3.90;;
56893;SDS011;43392;50.078;13.704;2024-03-23T10:30:09;7.85;;;4.07;;
56893;SDS011;43392;50.078;13.704;2024-03-23T10:32:37;6.45;;;3.00;;
56893;SDS011;43392;50.078;13.704;2024-03-23T10:35:21;5.28;;;2.33;;
56893;SDS011;43392;50.078;13.704;2024-03-23T10:37:48;5.30;;;2.42;;
56893;SDS011;43392;50.078;13.704;2024-03-23T10:40:14;5.38;;;3.15;;
56893;SDS011;43392;50.078;13.704;2024-03-23T10:42:41;5.93;;;2.33;;
56893;SDS011;43392;50.078;13.704;2024-03-23T10:45:07;3.25;;;1.90;;
56893;SDS011;43392;50.078;13.704;2024-03-23T10:47:35;4.88;;;2.00;;
56893;SDS011;43392;50.078;13.704;2024-03-23T10:50:01;3.60;;;1.80;;
56893;SDS011;43392;50.078;13.704;2024-03-23T10:52:30;3.38;;;1.70;;
56893;SDS011;43392;50.078;13.704;2024-03-23T10:54:55;4.22;;;1.95;;
56893;SDS011;43392;50.078;13.704;2024-03-23T10:57:26;4.05;;;1.80;;
56893;SDS011;43392;50.078;13.704;2024-03-23T10:59:56;2.47;;;1.55;;
56893;SDS011;43392;50.078;13.704;2024-03-23T11:02:24;3.13;;;1.70;;
56893;SDS011;43392;50.078;13.704;2024-03-23T11:04:52;2.45;;;1.50;;
56893;SDS011;43392;50.078;13.704;2024-03-23T11:09:53;2.72;;;1.48;;
56893;SDS011;43392;50.078;13.704;2024-03-23T11:14:49;3.03;;;1.40;;
56893;SDS011;43392;50.078;13.704;2024-03-23T11:17:20;4.13;;;1.70;;
56893;SDS011;43392;50.078;13.704;2024-03-23T11:19:53;8.73;;;2.97;;
56893;SDS011;43392;50.078;13.704;2024-03-23T11:25:12;4.65;;;2.40;;
56893;SDS011;43392;50.078;13.704;2024-03-23T11:27:49;5.70;;;2.63;;
56893;SDS011;43392;50.078;13.704;2024-03-23T11:30:16;7.30;;;3.13;;
56893;SDS011;43392;50.078;13.704;2024-03-23T11:32:44;5.25;;;2.50;;
56893;SDS011;43392;50.078;13.704;2024-03-23T11:35:26;11.02;;;3.25;;
56893;SDS011;43392;50.078;13.704;2024-03-23T11:40:27;3.40;;;1.55;;
56893;SDS011;43392;50.078;13.704;2024-03-23T11:43:03;12.02;;;4.13;;
56893;SDS011;43392;50.078;13.704;2024-03-23T11:45:33;5.22;;;2.38;;
56893;SDS011;43392;50.078;13.704;2024-03-23T11:48:08;7.53;;;2.88;;
56893;SDS011;43392;50.078;13.704;2024-03-23T11:50:35;4.57;;;1.63;;
56893;SDS011;43392;50.078;13.704;2024-03-23T11:53:09;4.65;;;1.70;;
56893;SDS011;43392;50.078;13.704;2024-03-23T11:55:44;5.88;;;2.00;;
56893;SDS011;43392;50.078;13.704;2024-03-23T11:58:18;5.30;;;2.10;;
56893;SDS011;43392;50.078;13.704;2024-03-23T12:03:16;3.83;;;1.53;;
56893;SDS011;43392;50.078;13.704;2024-03-23T12:05:46;6.63;;;2.50;;
56893;SDS011;43392;50.078;13.704;2024-03-23T12:08:34;1.98;;;0.70;;
56893;SDS011;43392;50.078;13.704;2024-03-23T12:11:06;12.23;;;1.05;;
56893;SDS011;43392;50.078;13.704;2024-03-23T12:13:40;11.52;;;3.60;;
56893;SDS011;43392;50.078;13.704;2024-03-23T12:16:26;2.50;;;0.90;;
56893;SDS011;43392;50.078;13.704;2024-03-23T12:18:52;15.45;;;5.50;;
56893;SDS011;43392;50.078;13.704;2024-03-23T12:21:20;34.13;;;12.40;;
56893;SDS011;43392;50.078;13.704;2024-03-23T12:23:47;97.50;;;31.33;;
56893;SDS011;43392;50.078;13.704;2024-03-23T12:26:15;67.10;;;24.45;;
56893;SDS011;43392;50.078;13.704;2024-03-23T12:28:42;2.58;;;0.88;;
56893;SDS011;43392;50.078;13.704;2024-03-23T12:31:09;1.33;;;0.50;;
56893;SDS011;43392;50.078;13.704;2024-03-23T12:33:35;0.77;;;0.52;;
56893;SDS011;43392;50.078;13.704;2024-03-23T12:36:02;1.65;;;0.40;;
56893;SDS011;43392;50.078;13.704;2024-03-23T12:38:28;10.32;;;3.38;;
56893;SDS011;43392;50.078;13.704;2024-03-23T12:40:54;1.10;;;0.68;;
56893;SDS011;43392;50.078;13.704;2024-03-23T12:43:20;4.13;;;1.40;;
56893;SDS011;43392;50.078;13.704;2024-03-23T12:45:49;8.10;;;2.42;;
56893;SDS011;43392;50.078;13.704;2024-03-23T12:48:15;23.23;;;8.95;;
56893;SDS011;43392;50.078;13.704;2024-03-23T12:50:42;39.38;;;17.45;;
56893;SDS011;43392;50.078;13.704;2024-03-23T12:53:07;28.42;;;12.77;;
56893;SDS011;43392;50.078;13.704;2024-03-23T12:55:34;15.68;;;6.95;;
56893;SDS011;43392;50.078;13.704;2024-03-23T12:58:00;16.02;;;7.50;;
56893;SDS011;43392;50.078;13.704;2024-03-23T13:00:26;7.53;;;3.33;;
56893;SDS011;43392;50.078;13.704;2024-03-23T13:02:52;8.80;;;3.90;;
56893;SDS011;43392;50.078;13.704;2024-03-23T13:05:19;10.80;;;4.80;;
56893;SDS011;43392;50.078;13.704;2024-03-23T13:07:44;8.00;;;3.55;;
56893;SDS011;43392;50.078;13.704;2024-03-23T13:10:10;6.90;;;2.75;;
56893;SDS011;43392;50.078;13.704;2024-03-23T13:12:36;3.78;;;1.75;;
56893;SDS011;43392;50.078;13.704;2024-03-23T13:15:02;7.00;;;2.83;;
56893;SDS011;43392;50.078;13.704;2024-03-23T13:17:28;4.30;;;1.70;;
56893;SDS011;43392;50.078;13.704;2024-03-23T13:19:55;2.58;;;1.20;;
56893;SDS011;43392;50.078;13.704;2024-03-23T13:22:21;2.08;;;0.82;;
56893;SDS011;43392;50.078;13.704;2024-03-23T13:24:47;6.43;;;2.22;;
56893;SDS011;43392;50.078;13.704;2024-03-23T13:27:13;10.65;;;4.93;;
56893;SDS011;43392;50.078;13.704;2024-03-23T13:29:39;5.22;;;2.03;;
56893;SDS011;43392;50.078;13.704;2024-03-23T13:32:05;1.70;;;0.70;;
56893;SDS011;43392;50.078;13.704;2024-03-23T13:34:32;2.90;;;1.35;;
56893;SDS011;43392;50.078;13.704;2024-03-23T13:36:58;4.45;;;1.65;;
56893;SDS011;43392;50.078;13.704;2024-03-23T13:39:24;4.20;;;1.42;;
56893;SDS011;43392;50.078;13.704;2024-03-23T13:41:52;3.95;;;1.42;;
56893;SDS011;43392;50.078;13.704;2024-03-23T13:44:19;1.20;;;0.60;;
56893;SDS011;43392;50.078;13.704;2024-03-23T13:46:45;2.50;;;1.02;;
56893;SDS011;43392;50.078;13.704;2024-03-23T13:49:33;3.17;;;0.93;;
56893;SDS011;43392;50.078;13.704;2024-03-23T13:51:58;2.08;;;0.70;;
56893;SDS011;43392;50.078;13.704;2024-03-23T13:54:28;1.60;;;0.90;;
56893;SDS011;43392;50.078;13.704;2024-03-23T13:56:55;2.75;;;1.20;;
56893;SDS011;43392;50.078;13.704;2024-03-23T13:59:22;1.73;;;0.95;;
56893;SDS011;43392;50.078;13.704;2024-03-23T14:01:49;4.63;;;1.00;;
56893;SDS011;43392;50.078;13.704;2024-03-23T14:04:16;2.10;;;0.90;;
56893;SDS011;43392;50.078;13.704;2024-03-23T14:06:44;2.28;;;0.93;;
56893;SDS011;43392;50.078;13.704;2024-03-23T14:09:11;0.77;;;0.70;;
56893;SDS011;43392;50.078;13.704;2024-03-23T14:11:38;1.23;;;0.77;;
56893;SDS011;43392;50.078;13.704;2024-03-23T14:14:06;1.33;;;0.80;;
56893;SDS011;43392;50.078;13.704;2024-03-23T14:16:32;1.02;;;0.70;;
56893;SDS011;43392;50.078;13.704;2024-03-23T14:18:59;2.78;;;1.00;;
56893;SDS011;43392;50.078;13.704;2024-03-23T14:21:25;1.85;;;0.90;;
56893;SDS011;43392;50.078;13.704;2024-03-23T14:23:51;2.47;;;1.38;;
56893;SDS011;43392;50.078;13.704;2024-03-23T14:26:17;2.55;;;1.10;;
56893;SDS011;43392;50.078;13.704;2024-03-23T14:28:43;2.90;;;0.88;;
56893;SDS011;43392;50.078;13.704;2024-03-23T14:31:09;1.65;;;0.88;;
56893;SDS011;43392;50.078;13.704;2024-03-23T14:33:37;2.30;;;1.13;;
56893;SDS011;43392;50.078;13.704;2024-03-23T14:36:03;4.38;;;1.15;;
56893;SDS011;43392;50.078;13.704;2024-03-23T14:38:30;1.77;;;1.00;;
56893;SDS011;43392;50.078;13.704;2024-03-23T14:40:58;4.18;;;1.55;;
56893;SDS011;43392;50.078;13.704;2024-03-23T14:43:27;3.65;;;1.67;;
56893;SDS011;43392;50.078;13.704;2024-03-23T14:48:39;5.32;;;2.13;;
56893;SDS011;43392;50.078;13.704;2024-03-23T14:51:06;4.93;;;1.90;;
56893;SDS011;43392;50.078;13.704;2024-03-23T14:53:33;2.97;;;1.25;;
56893;SDS011;43392;50.078;13.704;2024-03-23T14:56:00;4.00;;;1.30;;
56893;SDS011;43392;50.078;13.704;2024-03-23T14:58:27;5.32;;;1.90;;
56893;SDS011;43392;50.078;13.704;2024-03-23T15:00:57;4.30;;;1.77;;
56893;SDS011;43392;50.078;13.704;2024-03-23T15:03:26;4.43;;;1.70;;
56893;SDS011;43392;50.078;13.704;2024-03-23T15:05:52;5.05;;;2.00;;
56893;SDS011;43392;50.078;13.704;2024-03-23T15:08:22;3.75;;;1.73;;
56893;SDS011;43392;50.078;13.704;2024-03-23T15:10:49;6.53;;;2.20;;
56893;SDS011;43392;50.078;13.704;2024-03-23T15:13:16;4.75;;;1.58;;
56893;SDS011;43392;50.078;13.704;2024-03-23T15:15:41;9.75;;;3.60;;
56893;SDS011;43392;50.078;13.704;2024-03-23T15:18:12;4.72;;;2.10;;
56893;SDS011;43392;50.078;13.704;2024-03-23T15:20:40;10.88;;;3.13;;
56893;SDS011;43392;50.078;13.704;2024-03-23T15:23:19;8.38;;;2.63;;
56893;SDS011;43392;50.078;13.704;2024-03-23T15:25:45;6.80;;;3.22;;
56893;SDS011;43392;50.078;13.704;2024-03-23T15:28:11;5.85;;;2.15;;